Priwall — V2OX8 — position and weather

sailwx.info

Track history (hours):
 
Tides and Currents Weather Stations Pressure Air Temp Water Temp Dewpoint Dewpoint Depression Visibility Wind Speed Wind Dir Waves Ship Positions

Priwall

Last reported at 2014-Oct-25 11:32 UTC. Time now 2014-Oct-25 11:56 UTC.
Position N 54°08' E 012°05'.

Length 88 m; draft 3.4 m.

Type: Cargo ship. MMSI: 304739000.

Date/timePositionNaut miles runAvg speedWind from/ knotsBaromVisibWave heightAir tempDewpointWater temp
2014-Oct-25 11:32N 54°08' E 012°05'0 0.0
2014-Oct-25 10:32N 54°08' E 012°05'0 0.0
2014-Oct-25 09:32N 54°08' E 012°05'0 0.0
2014-Oct-25 08:11N 54°08' E 012°05'0 0.0
2014-Oct-25 07:26N 54°08' E 012°05'0 0.0
2014-Oct-25 00:32N 54°08' E 012°05'0 0.0
2014-Oct-24 23:11N 54°08' E 012°05'0 0.0
2014-Oct-24 22:14N 54°08' E 012°05'0 0.0
2014-Oct-24 20:14N 54°08' E 012°05'0 0.0
2014-Oct-24 19:09N 54°08' E 012°05'0 0.0
2014-Oct-24 18:32N 54°08' E 012°05'0 0.0
2014-Oct-24 17:29N 54°08' E 012°05'0 0.0
2014-Oct-24 16:15N 54°08' E 012°05'0 0.0
2014-Oct-24 14:29N 54°08' E 012°05'0 0.4
2014-Oct-24 13:31N 54°07' E 012°05'5 5.3
2014-Oct-24 12:30N 54°13' E 012°04'1010.3
2014-Oct-24 11:31N 54°20' E 011°52'4210.2
2014-Oct-24 07:22N 54°34' E 010°43'910.7
2014-Oct-24 06:33N 54°32' E 010°29'1110.8
2014-Oct-24 05:33N 54°26' E 010°14'5 5.0
2014-Oct-24 04:33N 54°22' E 010°09'4 3.9
2014-Oct-24 03:33N 54°22' E 010°02'4 4.1
2014-Oct-24 02:33N 54°21' E 009°55'7 7.4
2014-Oct-24 01:33N 54°19' E 009°43'8 7.9
2014-Oct-24 00:33N 54°13' E 009°34'24 6.0
2014-Oct-23 20:30N 53°54' E 009°09'2 2.5
2014-Oct-23 19:33N 53°53' E 009°05'7 6.7
2014-Oct-23 18:33N 53°51' E 008°54'6 6.0
2014-Oct-23 17:33N 53°52' E 008°44'6 5.6
2014-Oct-23 16:33N 53°56' E 008°39'7 6.6
2014-Oct-23 15:33N 53°59' E 008°28'8 7.4
2014-Oct-23 14:31N 53°60' E 008°16'74 9.2
2014-Oct-23 06:28N 53°54' E 006°10'1010.8
2014-Oct-23 05:33N 53°55' E 005°53'1010.4
2014-Oct-23 04:33N 53°57' E 005°36'10 9.7
2014-Oct-23 03:33N 53°58' E 005°19'9 9.0
2014-Oct-23 02:33N 53°59' E 005°04'9 8.8
2014-Oct-23 01:33N 53°60' E 004°49'7 7.2
2014-Oct-23 00:31N 54°07' E 004°48'8 8.0
2014-Oct-22 23:31N 54°07' E 004°35'146 9.1
2014-Oct-22 07:31N 53°34' E 000°34'9 9.8
2014-Oct-22 06:33N 53°33' E 000°19'1010.1
2014-Oct-22 05:33N 53°35' E 000°02'1010.1
2014-Oct-22 04:33N 53°40' W 000°12'6 6.3
2014-Oct-22 03:33N 53°44' W 000°21'0 0.0
2014-Oct-22 02:28N 53°44' W 000°21'0 0.0
2014-Oct-22 01:31N 53°44' W 000°21'0 0.0
2014-Oct-22 00:31N 53°44' W 000°21'0 0.0
2014-Oct-21 23:28N 53°44' W 000°21'0 0.0
2014-Oct-21 22:31N 53°44' W 000°21'0 0.0
2014-Oct-21 21:28N 53°44' W 000°21'0 0.0
2014-Oct-21 20:22N 53°44' W 000°21'0 0.0
2014-Oct-21 19:25N 53°44' W 000°21'0 0.0
2014-Oct-21 18:31N 53°44' W 000°21'0 0.0
2014-Oct-21 17:19N 53°44' W 000°21'0 0.0
2014-Oct-21 16:28N 53°44' W 000°21'0 0.0
2014-Oct-21 15:28N 53°44' W 000°21'0 0.0
2014-Oct-21 14:25N 53°44' W 000°21'0 0.0
2014-Oct-21 13:31N 53°44' W 000°21'0 0.0
2014-Oct-21 12:25N 53°44' W 000°21'0 0.0
2014-Oct-21 11:31N 53°44' W 000°21'0 0.0
2014-Oct-21 10:19N 53°44' W 000°21'0 0.0
2014-Oct-21 09:19N 53°44' W 000°21'0 0.0
2014-Oct-21 08:31N 53°44' W 000°21'0 0.0
2014-Oct-21 07:31N 53°44' W 000°21'0 0.0
2014-Oct-21 06:25N 53°44' W 000°21'0 0.0
2014-Oct-21 05:10N 53°44' W 000°21'0 0.0
2014-Oct-21 04:25N 53°44' W 000°21'0 0.0
2014-Oct-21 03:19N 53°44' W 000°21'0 0.0
2014-Oct-21 02:31N 53°44' W 000°21'0 0.0
2014-Oct-21 01:22N 53°44' W 000°21'0 0.0
2014-Oct-21 00:28N 53°44' W 000°21'0 0.0
2014-Oct-20 23:22N 53°44' W 000°21'0 0.0
2014-Oct-20 22:31N 53°44' W 000°21'0 0.0
2014-Oct-20 21:28N 53°44' W 000°21'0 0.0
2014-Oct-20 20:31N 53°44' W 000°21'0 0.0
2014-Oct-20 19:28N 53°44' W 000°21'0 0.0
2014-Oct-20 18:28N 53°44' W 000°21'0 0.0
2014-Oct-20 17:28N 53°44' W 000°21'0 0.0
2014-Oct-20 16:22N 53°44' W 000°21'0 0.0
2014-Oct-20 15:31N 53°44' W 000°21'0 0.0
2014-Oct-20 14:25N 53°44' W 000°21'0 0.0
2014-Oct-20 13:31N 53°44' W 000°21'0 0.0
2014-Oct-20 12:31N 53°44' W 000°21'0 0.0
2014-Oct-20 11:19N 53°44' W 000°21'0 0.0
2014-Oct-20 10:31N 53°44' W 000°21'0 0.0
2014-Oct-20 09:28N 53°44' W 000°21'0 0.0
2014-Oct-20 08:31N 53°44' W 000°21'0 0.0
2014-Oct-20 06:28N 53°44' W 000°21'0 0.0
2014-Oct-20 05:31N 53°44' W 000°21'0 0.0
2014-Oct-20 04:31N 53°44' W 000°21'0 0.0
2014-Oct-20 03:31N 53°44' W 000°21'0 0.0
2014-Oct-20 02:31N 53°44' W 000°21'0 0.0
2014-Oct-20 00:07N 53°44' W 000°21'0 0.0
2014-Oct-19 23:22N 53°44' W 000°21'0 0.0
2014-Oct-19 22:25N 53°44' W 000°21'0 0.0
2014-Oct-19 20:13N 53°44' W 000°21'0 0.0
2014-Oct-19 19:28N 53°44' W 000°21'0 0.0
2014-Oct-19 18:25N 53°44' W 000°21'0 0.0
2014-Oct-19 17:31N 53°44' W 000°21'0 0.0
2014-Oct-19 16:28N 53°44' W 000°21'0 0.0
2014-Oct-19 15:31N 53°44' W 000°21'0 0.0
2014-Oct-19 14:28N 53°44' W 000°21'0 0.0
2014-Oct-19 13:31N 53°44' W 000°21'0 0.0
2014-Oct-19 12:04N 53°44' W 000°21'0 0.0
2014-Oct-19 11:19N 53°44' W 000°21'0 0.0
2014-Oct-19 10:25N 53°44' W 000°21'0 0.0
2014-Oct-19 09:19N 53°44' W 000°21'0 0.0
2014-Oct-19 08:10N 53°44' W 000°21'0 0.0
2014-Oct-19 07:22N 53°44' W 000°21'0 0.0
2014-Oct-19 05:16N 53°44' W 000°21'0 0.0
2014-Oct-19 04:16N 53°44' W 000°21'0 0.0
2014-Oct-19 03:16N 53°44' W 000°21'0 0.0
2014-Oct-19 02:10N 53°44' W 000°21'0 0.3
2014-Oct-19 01:33N 53°44' W 000°20'5 4.9
2014-Oct-19 00:33N 53°41' W 000°13'1211.7
2014-Oct-18 23:33N 53°35' E 000°03'9 9.1
2014-Oct-18 22:33N 53°36' E 000°18'1010.0
2014-Oct-18 21:33N 53°45' E 000°22'10 9.7
2014-Oct-18 20:33N 53°55' E 000°24'7 6.6
2014-Oct-18 19:33N 54°02' E 000°25'2 2.1
2014-Oct-18 18:33N 54°04' E 000°26'5 4.7
2014-Oct-18 17:33N 53°59' E 000°26'1 1.2
2014-Oct-18 16:33N 53°58' E 000°25'3 2.6
2014-Oct-18 15:33N 53°55' E 000°24'3 3.3
2014-Oct-18 14:33N 53°58' E 000°25'3 3.3
2014-Oct-18 13:33N 54°02' E 000°26'3 3.1
2014-Oct-18 12:33N 54°05' E 000°26'2 2.5
2014-Oct-18 11:33N 54°07' E 000°26'2 1.9
2014-Oct-18 10:33N 54°09' E 000°26'1 0.7
2014-Oct-18 09:33N 54°09' E 000°27'5 5.3
2014-Oct-18 08:33N 54°04' E 000°29'6 5.7
2014-Oct-18 07:33N 53°58' E 000°31'6 5.9
2014-Oct-18 06:31N 53°52' E 000°34'5 5.6
2014-Oct-18 05:33N 53°47' E 000°34'5 4.8
2014-Oct-18 04:33N 53°42' E 000°32'4 4.3
2014-Oct-18 03:34N 53°38' E 000°29'3 2.6
2014-Oct-18 02:32N 53°36' E 000°26'0 0.2
2014-Oct-18 01:26N 53°36' E 000°26'0 0.0
2014-Oct-18 00:32N 53°36' E 000°26'0 0.0
2014-Oct-17 23:29N 53°36' E 000°26'0 0.0
2014-Oct-17 22:32N 53°36' E 000°26'0 0.0
2014-Oct-17 21:32N 53°36' E 000°26'0 0.0
2014-Oct-17 20:29N 53°36' E 000°26'0 0.0
2014-Oct-17 19:29N 53°36' E 000°26'0 0.0
2014-Oct-17 18:32N 53°36' E 000°26'0 0.0
2014-Oct-17 17:29N 53°36' E 000°26'0 0.0
2014-Oct-17 16:32N 53°36' E 000°26'0 0.0
2014-Oct-17 15:23N 53°36' E 000°26'0 0.0
2014-Oct-17 14:29N 53°36' E 000°26'0 0.1
2014-Oct-17 13:11N 53°36' E 000°26'0 0.0
2014-Oct-17 12:23N 53°36' E 000°26'0 0.0
2014-Oct-17 11:32N 53°36' E 000°26'0 0.0
2014-Oct-17 10:32N 53°36' E 000°26'0 0.1
2014-Oct-17 09:29N 53°36' E 000°26'0 0.0
2014-Oct-17 08:32N 53°36' E 000°26'0 0.0
2014-Oct-17 07:23N 53°36' E 000°26'0 0.0
2014-Oct-17 06:29N 53°36' E 000°26'0 0.0
2014-Oct-17 05:26N 53°36' E 000°26'0 0.0
2014-Oct-17 04:32N 53°36' E 000°26'0 0.0
2014-Oct-17 03:32N 53°36' E 000°26'0 0.0
2014-Oct-17 02:32N 53°36' E 000°26'0 0.0
2014-Oct-17 01:23N 53°36' E 000°26'0 0.1
2014-Oct-17 00:32N 53°36' E 000°26'0 0.0
2014-Oct-16 23:29N 53°36' E 000°26'0 0.0
2014-Oct-16 22:26N 53°36' E 000°26'0 0.0
2014-Oct-16 21:29N 53°36' E 000°26'0 0.0
2014-Oct-16 20:14N 53°36' E 000°26'0 0.0
2014-Oct-16 19:26N 53°36' E 000°26'0 0.1
2014-Oct-16 18:20N 53°36' E 000°26'0 0.0
2014-Oct-16 17:29N 53°36' E 000°26'0 0.0
2014-Oct-16 16:29N 53°36' E 000°26'0 0.0
2014-Oct-16 15:29N 53°36' E 000°26'0 0.0
2014-Oct-16 14:23N 53°36' E 000°26'0 0.0
2014-Oct-16 13:32N 53°36' E 000°26'0 0.0
2014-Oct-16 12:20N 53°36' E 000°26'0 0.0
2014-Oct-16 11:26N 53°36' E 000°26'0 0.0
2014-Oct-16 10:32N 53°36' E 000°26'0 0.0
2014-Oct-16 09:31N 53°36' E 000°26'6 6.1
2014-Oct-16 08:31N 53°30' E 000°30'9 8.7
2014-Oct-16 07:30N 53°22' E 000°35'3010.0
2014-Oct-16 04:33N 53°01' E 001°10'1010.0
2014-Oct-16 03:33N 52°57' E 001°25'9 9.2
2014-Oct-16 02:33N 52°53' E 001°39'8 8.3
2014-Oct-16 01:33N 52°48' E 001°51'9 7.4
2014-Oct-16 00:22N 52°41' E 001°59'6 7.6
2014-Oct-15 23:32N 52°35' E 002°02'9 8.6
2014-Oct-15 22:32N 52°27' E 001°58'10 9.5
2014-Oct-15 21:31N 52°17' E 001°55'1010.2
2014-Oct-15 20:33N 52°08' E 001°52'1110.8
2014-Oct-15 19:33N 51°57' E 001°49'8 8.1
2014-Oct-15 18:33N 51°50' E 001°43'9 8.9
2014-Oct-15 17:33N 51°49' E 001°29'1010.2
2014-Oct-15 16:33N 51°43' E 001°15'10 9.6
2014-Oct-15 15:33N 51°39' E 001°01'8 8.2
2014-Oct-15 14:33N 51°37' E 000°48'0 0.2
2014-Oct-15 13:33N 51°37' E 000°47'0 0.0
2014-Oct-15 12:31N 51°37' E 000°47'  
Track history (hours):
 
Tides and Currents Weather Stations Pressure Air Temp Water Temp Dewpoint Dewpoint Depression Visibility Wind Speed Wind Dir Waves Ship Positions

Priwall

Last reported at 2014-Oct-25 11:32 UTC. Time now 2014-Oct-25 11:56 UTC.
Position N 54°08' E 012°05'.

Length 88 m; draft 3.4 m.

Type: Cargo ship. MMSI: 304739000.

Date/timePositionNaut miles runAvg speedWind from/ knotsBaromVisibWave heightAir tempDewpointWater temp
2014-Oct-25 11:32N 54°08' E 012°05'0 0.0
2014-Oct-25 10:32N 54°08' E 012°05'0 0.0
2014-Oct-25 09:32N 54°08' E 012°05'0 0.0
2014-Oct-25 08:11N 54°08' E 012°05'0 0.0
2014-Oct-25 07:26N 54°08' E 012°05'0 0.0
2014-Oct-25 00:32N 54°08' E 012°05'0 0.0
2014-Oct-24 23:11N 54°08' E 012°05'0 0.0
2014-Oct-24 22:14N 54°08' E 012°05'0 0.0
2014-Oct-24 20:14N 54°08' E 012°05'0 0.0
2014-Oct-24 19:09N 54°08' E 012°05'0 0.0
2014-Oct-24 18:32N 54°08' E 012°05'0 0.0
2014-Oct-24 17:29N 54°08' E 012°05'0 0.0
2014-Oct-24 16:15N 54°08' E 012°05'0 0.0
2014-Oct-24 14:29N 54°08' E 012°05'0 0.4
2014-Oct-24 13:31N 54°07' E 012°05'5 5.3
2014-Oct-24 12:30N 54°13' E 012°04'1010.3
2014-Oct-24 11:31N 54°20' E 011°52'4210.2
2014-Oct-24 07:22N 54°34' E 010°43'910.7
2014-Oct-24 06:33N 54°32' E 010°29'1110.8
2014-Oct-24 05:33N 54°26' E 010°14'5 5.0
2014-Oct-24 04:33N 54°22' E 010°09'4 3.9
2014-Oct-24 03:33N 54°22' E 010°02'4 4.1
2014-Oct-24 02:33N 54°21' E 009°55'7 7.4
2014-Oct-24 01:33N 54°19' E 009°43'8 7.9
2014-Oct-24 00:33N 54°13' E 009°34'24 6.0
2014-Oct-23 20:30N 53°54' E 009°09'2 2.5
2014-Oct-23 19:33N 53°53' E 009°05'7 6.7
2014-Oct-23 18:33N 53°51' E 008°54'6 6.0
2014-Oct-23 17:33N 53°52' E 008°44'6 5.6
2014-Oct-23 16:33N 53°56' E 008°39'7 6.6
2014-Oct-23 15:33N 53°59' E 008°28'8 7.4
2014-Oct-23 14:31N 53°60' E 008°16'74 9.2
2014-Oct-23 06:28N 53°54' E 006°10'1010.8
2014-Oct-23 05:33N 53°55' E 005°53'1010.4
2014-Oct-23 04:33N 53°57' E 005°36'10 9.7
2014-Oct-23 03:33N 53°58' E 005°19'9 9.0
2014-Oct-23 02:33N 53°59' E 005°04'9 8.8
2014-Oct-23 01:33N 53°60' E 004°49'7 7.2
2014-Oct-23 00:31N 54°07' E 004°48'8 8.0
2014-Oct-22 23:31N 54°07' E 004°35'146 9.1
2014-Oct-22 07:31N 53°34' E 000°34'9 9.8
2014-Oct-22 06:33N 53°33' E 000°19'1010.1
2014-Oct-22 05:33N 53°35' E 000°02'1010.1
2014-Oct-22 04:33N 53°40' W 000°12'6 6.3
2014-Oct-22 03:33N 53°44' W 000°21'0 0.0
2014-Oct-22 02:28N 53°44' W 000°21'0 0.0
2014-Oct-22 01:31N 53°44' W 000°21'0 0.0
2014-Oct-22 00:31N 53°44' W 000°21'0 0.0
2014-Oct-21 23:28N 53°44' W 000°21'0 0.0
2014-Oct-21 22:31N 53°44' W 000°21'0 0.0
2014-Oct-21 21:28N 53°44' W 000°21'0 0.0
2014-Oct-21 20:22N 53°44' W 000°21'0 0.0
2014-Oct-21 19:25N 53°44' W 000°21'0 0.0
2014-Oct-21 18:31N 53°44' W 000°21'0 0.0
2014-Oct-21 17:19N 53°44' W 000°21'0 0.0
2014-Oct-21 16:28N 53°44' W 000°21'0 0.0
2014-Oct-21 15:28N 53°44' W 000°21'0 0.0
2014-Oct-21 14:25N 53°44' W 000°21'0 0.0
2014-Oct-21 13:31N 53°44' W 000°21'0 0.0
2014-Oct-21 12:25N 53°44' W 000°21'0 0.0
2014-Oct-21 11:31N 53°44' W 000°21'0 0.0
2014-Oct-21 10:19N 53°44' W 000°21'0 0.0
2014-Oct-21 09:19N 53°44' W 000°21'0 0.0
2014-Oct-21 08:31N 53°44' W 000°21'0 0.0
2014-Oct-21 07:31N 53°44' W 000°21'0 0.0
2014-Oct-21 06:25N 53°44' W 000°21'0 0.0
2014-Oct-21 05:10N 53°44' W 000°21'0 0.0
2014-Oct-21 04:25N 53°44' W 000°21'0 0.0
2014-Oct-21 03:19N 53°44' W 000°21'0 0.0
2014-Oct-21 02:31N 53°44' W 000°21'0 0.0
2014-Oct-21 01:22N 53°44' W 000°21'0 0.0
2014-Oct-21 00:28N 53°44' W 000°21'0 0.0
2014-Oct-20 23:22N 53°44' W 000°21'0 0.0
2014-Oct-20 22:31N 53°44' W 000°21'0 0.0
2014-Oct-20 21:28N 53°44' W 000°21'0 0.0
2014-Oct-20 20:31N 53°44' W 000°21'0 0.0
2014-Oct-20 19:28N 53°44' W 000°21'0 0.0
2014-Oct-20 18:28N 53°44' W 000°21'0 0.0
2014-Oct-20 17:28N 53°44' W 000°21'0 0.0
2014-Oct-20 16:22N 53°44' W 000°21'0 0.0
2014-Oct-20 15:31N 53°44' W 000°21'0 0.0
2014-Oct-20 14:25N 53°44' W 000°21'0 0.0
2014-Oct-20 13:31N 53°44' W 000°21'0 0.0
2014-Oct-20 12:31N 53°44' W 000°21'0 0.0
2014-Oct-20 11:19N 53°44' W 000°21'0 0.0
2014-Oct-20 10:31N 53°44' W 000°21'0 0.0
2014-Oct-20 09:28N 53°44' W 000°21'0 0.0
2014-Oct-20 08:31N 53°44' W 000°21'0 0.0
2014-Oct-20 06:28N 53°44' W 000°21'0 0.0
2014-Oct-20 05:31N 53°44' W 000°21'0 0.0
2014-Oct-20 04:31N 53°44' W 000°21'0 0.0
2014-Oct-20 03:31N 53°44' W 000°21'0 0.0
2014-Oct-20 02:31N 53°44' W 000°21'0 0.0
2014-Oct-20 00:07N 53°44' W 000°21'0 0.0
2014-Oct-19 23:22N 53°44' W 000°21'0 0.0
2014-Oct-19 22:25N 53°44' W 000°21'0 0.0
2014-Oct-19 20:13N 53°44' W 000°21'0 0.0
2014-Oct-19 19:28N 53°44' W 000°21'0 0.0
2014-Oct-19 18:25N 53°44' W 000°21'0 0.0
2014-Oct-19 17:31N 53°44' W 000°21'0 0.0
2014-Oct-19 16:28N 53°44' W 000°21'0 0.0
2014-Oct-19 15:31N 53°44' W 000°21'0 0.0
2014-Oct-19 14:28N 53°44' W 000°21'0 0.0
2014-Oct-19 13:31N 53°44' W 000°21'0 0.0
2014-Oct-19 12:04N 53°44' W 000°21'0 0.0
2014-Oct-19 11:19N 53°44' W 000°21'0 0.0
2014-Oct-19 10:25N 53°44' W 000°21'0 0.0
2014-Oct-19 09:19N 53°44' W 000°21'0 0.0
2014-Oct-19 08:10N 53°44' W 000°21'0 0.0
2014-Oct-19 07:22N 53°44' W 000°21'0 0.0
2014-Oct-19 05:16N 53°44' W 000°21'0 0.0
2014-Oct-19 04:16N 53°44' W 000°21'0 0.0
2014-Oct-19 03:16N 53°44' W 000°21'0 0.0
2014-Oct-19 02:10N 53°44' W 000°21'0 0.3
2014-Oct-19 01:33N 53°44' W 000°20'5 4.9
2014-Oct-19 00:33N 53°41' W 000°13'1211.7
2014-Oct-18 23:33N 53°35' E 000°03'9 9.1
2014-Oct-18 22:33N 53°36' E 000°18'1010.0
2014-Oct-18 21:33N 53°45' E 000°22'10 9.7
2014-Oct-18 20:33N 53°55' E 000°24'7 6.6
2014-Oct-18 19:33N 54°02' E 000°25'2 2.1
2014-Oct-18 18:33N 54°04' E 000°26'5 4.7
2014-Oct-18 17:33N 53°59' E 000°26'1 1.2
2014-Oct-18 16:33N 53°58' E 000°25'3 2.6
2014-Oct-18 15:33N 53°55' E 000°24'3 3.3
2014-Oct-18 14:33N 53°58' E 000°25'3 3.3
2014-Oct-18 13:33N 54°02' E 000°26'3 3.1
2014-Oct-18 12:33N 54°05' E 000°26'2 2.5
2014-Oct-18 11:33N 54°07' E 000°26'2 1.9
2014-Oct-18 10:33N 54°09' E 000°26'1 0.7
2014-Oct-18 09:33N 54°09' E 000°27'5 5.3
2014-Oct-18 08:33N 54°04' E 000°29'6 5.7
2014-Oct-18 07:33N 53°58' E 000°31'6 5.9
2014-Oct-18 06:31N 53°52' E 000°34'5 5.6
2014-Oct-18 05:33N 53°47' E 000°34'5 4.8
2014-Oct-18 04:33N 53°42' E 000°32'4 4.3
2014-Oct-18 03:34N 53°38' E 000°29'3 2.6
2014-Oct-18 02:32N 53°36' E 000°26'0 0.2
2014-Oct-18 01:26N 53°36' E 000°26'0 0.0
2014-Oct-18 00:32N 53°36' E 000°26'0 0.0
2014-Oct-17 23:29N 53°36' E 000°26'0 0.0
2014-Oct-17 22:32N 53°36' E 000°26'0 0.0
2014-Oct-17 21:32N 53°36' E 000°26'0 0.0
2014-Oct-17 20:29N 53°36' E 000°26'0 0.0
2014-Oct-17 19:29N 53°36' E 000°26'0 0.0
2014-Oct-17 18:32N 53°36' E 000°26'0 0.0
2014-Oct-17 17:29N 53°36' E 000°26'0 0.0
2014-Oct-17 16:32N 53°36' E 000°26'0 0.0
2014-Oct-17 15:23N 53°36' E 000°26'0 0.0
2014-Oct-17 14:29N 53°36' E 000°26'0 0.1
2014-Oct-17 13:11N 53°36' E 000°26'0 0.0
2014-Oct-17 12:23N 53°36' E 000°26'0 0.0
2014-Oct-17 11:32N 53°36' E 000°26'0 0.0
2014-Oct-17 10:32N 53°36' E 000°26'0 0.1
2014-Oct-17 09:29N 53°36' E 000°26'0 0.0
2014-Oct-17 08:32N 53°36' E 000°26'0 0.0
2014-Oct-17 07:23N 53°36' E 000°26'0 0.0
2014-Oct-17 06:29N 53°36' E 000°26'0 0.0
2014-Oct-17 05:26N 53°36' E 000°26'0 0.0
2014-Oct-17 04:32N 53°36' E 000°26'0 0.0
2014-Oct-17 03:32N 53°36' E 000°26'0 0.0
2014-Oct-17 02:32N 53°36' E 000°26'0 0.0
2014-Oct-17 01:23N 53°36' E 000°26'0 0.1
2014-Oct-17 00:32N 53°36' E 000°26'0 0.0
2014-Oct-16 23:29N 53°36' E 000°26'0 0.0
2014-Oct-16 22:26N 53°36' E 000°26'0 0.0
2014-Oct-16 21:29N 53°36' E 000°26'0 0.0
2014-Oct-16 20:14N 53°36' E 000°26'0 0.0
2014-Oct-16 19:26N 53°36' E 000°26'0 0.1
2014-Oct-16 18:20N 53°36' E 000°26'0 0.0
2014-Oct-16 17:29N 53°36' E 000°26'0 0.0
2014-Oct-16 16:29N 53°36' E 000°26'0 0.0
2014-Oct-16 15:29N 53°36' E 000°26'0 0.0
2014-Oct-16 14:23N 53°36' E 000°26'0 0.0
2014-Oct-16 13:32N 53°36' E 000°26'0 0.0
2014-Oct-16 12:20N 53°36' E 000°26'0 0.0
2014-Oct-16 11:26N 53°36' E 000°26'0 0.0
2014-Oct-16 10:32N 53°36' E 000°26'0 0.0
2014-Oct-16 09:31N 53°36' E 000°26'6 6.1
2014-Oct-16 08:31N 53°30' E 000°30'9 8.7
2014-Oct-16 07:30N 53°22' E 000°35'3010.0
2014-Oct-16 04:33N 53°01' E 001°10'1010.0
2014-Oct-16 03:33N 52°57' E 001°25'9 9.2
2014-Oct-16 02:33N 52°53' E 001°39'8 8.3
2014-Oct-16 01:33N 52°48' E 001°51'9 7.4
2014-Oct-16 00:22N 52°41' E 001°59'6 7.6
2014-Oct-15 23:32N 52°35' E 002°02'9 8.6
2014-Oct-15 22:32N 52°27' E 001°58'10 9.5
2014-Oct-15 21:31N 52°17' E 001°55'1010.2
2014-Oct-15 20:33N 52°08' E 001°52'1110.8
2014-Oct-15 19:33N 51°57' E 001°49'8 8.1
2014-Oct-15 18:33N 51°50' E 001°43'9 8.9
2014-Oct-15 17:33N 51°49' E 001°29'1010.2
2014-Oct-15 16:33N 51°43' E 001°15'10 9.6
2014-Oct-15 15:33N 51°39' E 001°01'8 8.2
2014-Oct-15 14:33N 51°37' E 000°48'0 0.2
2014-Oct-15 13:33N 51°37' E 000°47'0 0.0
2014-Oct-15 12:31N 51°37' E 000°47'  

Dump ship's entire track history